YCBP

Details ICAO YCBP (CPD)
Name Coober Pedy
Region Australia
Timezone Australia/Adelaide (UTC+10.5)
Plans Departing 4
Arriving 12
Stats Elevation 739 ft / 225 m (AMSL)
Location -29.039915° 134.721436°
Runways 2
Magnetic Variation 5.481° E
Sunrise 2017-12-12 19:57:24 UTC / 2017-12-13 06:27:24 Local
Sunset 2017-12-13 09:55:43 UTC / 2017-12-13 20:25:43 Local
Advertisement - Login to hide

Runways

ID Width Length Bearing (true) Bearing (mag) Surface Threshold Offset Overrun Length
04 49 ft / 15 m 4,688 ft / 1,429 m 48.90° 43.42° Asphalt 0 ft / 0 m 0 ft / 0 m
14 164 ft / 50 m 3,143 ft / 958 m 150.00° 144.52° Unknown 0 ft / 0 m 0 ft / 0 m
22 49 ft / 15 m 4,688 ft / 1,429 m 228.90° 223.42° Asphalt 0 ft / 0 m 0 ft / 0 m
32 164 ft / 50 m 3,143 ft / 958 m 330.00° 324.52° Unknown 0 ft / 0 m 0 ft / 0 m

Map

Weather


0- 5 10 15 20 25 30 35+ Temperature / ° C

Clouds and Precipitation
Forecast for 2017-12-13 06:00 UTC. Updated 22 minutes ago

Ground ~20,000 ft ~40,000 ft Winds

METAR

YCBP 130100Z AUTO 20014KT 9999 // NCD 35/09 Q1008

TAF

Not found

Frequencies

Unicom 119.60 MHz ACTIVATE LIGHTS ONLY MULT
Unicom 120.70 MHz MELBOURNE CENTRE MULT
Unicom 126.70 MHz COOBER PEDY MULT
Warning: Do not use this data for real-world aviation or navigation. No guarantee of current accuracy is given.